Borgata Borghesiana, Italy

8:48 PM CEST on July 27, 2017 (GMT +0200)
Largo di Torre Argentina | | Change Station

Elev 128 ft 41.90 °N, 12.48 °E | Updated 4 days ago

Clear
Clear
78.0 °F
Feels Like 80 °F
N
1.0
Wind Variable Wind from ESE
Gusts 3.0 mph

Today
High -- | Low -- °F
--% Chance of Precip.
Yesterday
High -- | Low -- °F
Precip. -- in
Pressure 29.86 in
Visibility 6.2 miles
Clouds Few 3000 ft
Heat Index 80 °F
Dew Point 73 °F
Humidity 83%
Rainfall 0.00 in
Snow Depth Not available.
5:58 AM 8:33 PM
Waxing Crescent, 23% visible
METAR LIRA 271820Z 24004KT 170V290 9999 FEW030 26/13 Q1011
Pressure 29.86 in
Visibility 6.2 miles
Clouds Few 3000 ft
Heat Index 80 °F
Dew Point 73 °F
Humidity 83%
Rainfall 0.00 in
Snow Depth Not available.
5:58 AM 8:33 PM
Waxing Crescent, 23% visible
METAR LIRA 271820Z 24004KT 170V290 9999 FEW030 26/13 Q1011

Get Severe Weather Alerts

Thanks for signing up!

Be on the lookout for a verification email in your inbox.

You'll start receiving the daily forecast at 6 AM.

×

10-Day Weather Forecast

×

Almanac

Astronomy

Jul. 27, 2017 Rise Set
Actual Time
Civil Twilight
Nautical Twilight
Astronomical Twilight
Moon
Length of Visible Light
Length of Day
Tomorrow will be .
, % of the Moon is Illuminated

Today's Extremes

Country Highs Country Lows

Community

WunderPhotos

Category 6

Welcome to Category 6. This is the collective home for Weather Underground's featured writeups by Dr. Jeff Masters (right), Bob Henson (left), Chris Burt, and other regular contributors.

Nearby

Air Quality

  Air Quality AQ Index Pollutant
Not available.

Snow Depth

Station Depth Elevation

Earthquake Activity

City Distance Mag. Time & Date
Minimum magnitude displayed is 2.5.

Coastal Water Temperatures

Place Temperature

Stations

Nearby Weather Stations

Station Location Temp. Windchill Dew Point Humidity Wind Precip. Elev Updated Type